sensor_id;sensor_type;location;lat;lon;timestamp;P1;durP1;ratioP1;P2;durP2;ratioP2
43990;SDS011;29654;50.784;20.604;2023-12-28T00:03:40;52.33;;;29.45;;
43990;SDS011;29654;50.784;20.604;2023-12-28T00:08:44;47.53;;;27.00;;
43990;SDS011;29654;50.784;20.604;2023-12-28T00:13:48;35.42;;;21.45;;
43990;SDS011;29654;50.784;20.604;2023-12-28T00:18:50;32.65;;;19.27;;
43990;SDS011;29654;50.784;20.604;2023-12-28T00:23:53;40.47;;;22.00;;
43990;SDS011;29654;50.784;20.604;2023-12-28T00:28:57;51.33;;;26.20;;
43990;SDS011;29654;50.784;20.604;2023-12-28T00:34:00;58.78;;;28.90;;
43990;SDS011;29654;50.784;20.604;2023-12-28T00:39:03;56.78;;;29.08;;
43990;SDS011;29654;50.784;20.604;2023-12-28T00:44:07;49.80;;;24.95;;
43990;SDS011;29654;50.784;20.604;2023-12-28T00:49:11;39.42;;;21.77;;
43990;SDS011;29654;50.784;20.604;2023-12-28T00:54:14;33.53;;;18.98;;
43990;SDS011;29654;50.784;20.604;2023-12-28T00:59:18;24.17;;;15.52;;
43990;SDS011;29654;50.784;20.604;2023-12-28T01:04:20;23.17;;;15.32;;
43990;SDS011;29654;50.784;20.604;2023-12-28T01:09:23;19.65;;;12.50;;
43990;SDS011;29654;50.784;20.604;2023-12-28T01:14:27;20.17;;;11.55;;
43990;SDS011;29654;50.784;20.604;2023-12-28T01:19:30;19.77;;;11.50;;
43990;SDS011;29654;50.784;20.604;2023-12-28T01:24:33;17.67;;;11.55;;
43990;SDS011;29654;50.784;20.604;2023-12-28T01:29:38;22.05;;;11.98;;
43990;SDS011;29654;50.784;20.604;2023-12-28T01:34:41;18.13;;;11.73;;
43990;SDS011;29654;50.784;20.604;2023-12-28T01:39:43;21.08;;;12.73;;
43990;SDS011;29654;50.784;20.604;2023-12-28T01:44:48;21.02;;;12.85;;
43990;SDS011;29654;50.784;20.604;2023-12-28T01:49:50;19.95;;;13.80;;
43990;SDS011;29654;50.784;20.604;2023-12-28T01:54:54;21.58;;;13.23;;
43990;SDS011;29654;50.784;20.604;2023-12-28T01:59:58;24.52;;;12.52;;
43990;SDS011;29654;50.784;20.604;2023-12-28T02:05:13;21.10;;;12.15;;
43990;SDS011;29654;50.784;20.604;2023-12-28T02:10:17;18.23;;;13.13;;
43990;SDS011;29654;50.784;20.604;2023-12-28T02:15:22;18.45;;;13.20;;
43990;SDS011;29654;50.784;20.604;2023-12-28T02:20:25;18.23;;;12.43;;
43990;SDS011;29654;50.784;20.604;2023-12-28T02:25:32;18.58;;;12.32;;
43990;SDS011;29654;50.784;20.604;2023-12-28T02:30:35;18.88;;;12.70;;
43990;SDS011;29654;50.784;20.604;2023-12-28T02:35:39;17.38;;;11.48;;
43990;SDS011;29654;50.784;20.604;2023-12-28T02:40:46;18.38;;;12.77;;
43990;SDS011;29654;50.784;20.604;2023-12-28T02:45:50;19.45;;;12.77;;
43990;SDS011;29654;50.784;20.604;2023-12-28T02:50:53;19.00;;;13.48;;
43990;SDS011;29654;50.784;20.604;2023-12-28T02:55:57;18.92;;;12.85;;
43990;SDS011;29654;50.784;20.604;2023-12-28T03:01:00;16.55;;;11.45;;
43990;SDS011;29654;50.784;20.604;2023-12-28T03:06:03;18.50;;;12.13;;
43990;SDS011;29654;50.784;20.604;2023-12-28T03:11:07;18.83;;;11.68;;
43990;SDS011;29654;50.784;20.604;2023-12-28T03:16:10;18.13;;;11.82;;
43990;SDS011;29654;50.784;20.604;2023-12-28T03:21:13;17.95;;;11.85;;
43990;SDS011;29654;50.784;20.604;2023-12-28T03:26:17;17.55;;;11.57;;
43990;SDS011;29654;50.784;20.604;2023-12-28T03:31:20;23.60;;;13.90;;
43990;SDS011;29654;50.784;20.604;2023-12-28T03:36:23;21.35;;;13.93;;
43990;SDS011;29654;50.784;20.604;2023-12-28T03:41:28;21.77;;;14.73;;
43990;SDS011;29654;50.784;20.604;2023-12-28T03:46:31;22.52;;;14.30;;
43990;SDS011;29654;50.784;20.604;2023-12-28T03:51:33;19.33;;;14.73;;
43990;SDS011;29654;50.784;20.604;2023-12-28T03:56:37;18.80;;;13.10;;
43990;SDS011;29654;50.784;20.604;2023-12-28T04:01:41;18.33;;;13.55;;
43990;SDS011;29654;50.784;20.604;2023-12-28T04:06:43;18.20;;;11.98;;
43990;SDS011;29654;50.784;20.604;2023-12-28T04:11:47;15.43;;;10.40;;
43990;SDS011;29654;50.784;20.604;2023-12-28T04:16:50;19.08;;;10.93;;
43990;SDS011;29654;50.784;20.604;2023-12-28T04:21:53;15.30;;;9.77;;
43990;SDS011;29654;50.784;20.604;2023-12-28T04:26:57;14.32;;;10.43;;
43990;SDS011;29654;50.784;20.604;2023-12-28T04:32:00;18.95;;;12.65;;
43990;SDS011;29654;50.784;20.604;2023-12-28T04:37:03;18.52;;;11.77;;
43990;SDS011;29654;50.784;20.604;2023-12-28T04:42:07;14.27;;;10.95;;
43990;SDS011;29654;50.784;20.604;2023-12-28T04:47:10;21.85;;;14.88;;
43990;SDS011;29654;50.784;20.604;2023-12-28T04:52:13;22.63;;;15.93;;
43990;SDS011;29654;50.784;20.604;2023-12-28T04:57:18;16.80;;;12.50;;
43990;SDS011;29654;50.784;20.604;2023-12-28T05:02:23;19.20;;;13.15;;
43990;SDS011;29654;50.784;20.604;2023-12-28T05:07:26;19.77;;;15.05;;
43990;SDS011;29654;50.784;20.604;2023-12-28T05:12:30;20.67;;;15.55;;
43990;SDS011;29654;50.784;20.604;2023-12-28T05:17:33;19.17;;;14.02;;
43990;SDS011;29654;50.784;20.604;2023-12-28T05:22:36;17.55;;;14.00;;
43990;SDS011;29654;50.784;20.604;2023-12-28T05:27:40;15.38;;;12.43;;
43990;SDS011;29654;50.784;20.604;2023-12-28T05:32:43;14.52;;;10.05;;
43990;SDS011;29654;50.784;20.604;2023-12-28T05:37:45;19.83;;;13.15;;
43990;SDS011;29654;50.784;20.604;2023-12-28T05:42:49;18.15;;;12.07;;
43990;SDS011;29654;50.784;20.604;2023-12-28T05:47:52;12.55;;;8.70;;
43990;SDS011;29654;50.784;20.604;2023-12-28T05:52:55;11.70;;;8.00;;
43990;SDS011;29654;50.784;20.604;2023-12-28T05:57:59;11.30;;;8.00;;
43990;SDS011;29654;50.784;20.604;2023-12-28T06:03:01;13.68;;;8.43;;
43990;SDS011;29654;50.784;20.604;2023-12-28T06:08:04;23.73;;;12.82;;
43990;SDS011;29654;50.784;20.604;2023-12-28T06:13:09;20.60;;;11.32;;
43990;SDS011;29654;50.784;20.604;2023-12-28T06:18:12;13.63;;;8.77;;
43990;SDS011;29654;50.784;20.604;2023-12-28T06:23:14;11.50;;;8.05;;
43990;SDS011;29654;50.784;20.604;2023-12-28T06:28:18;10.65;;;7.25;;
43990;SDS011;29654;50.784;20.604;2023-12-28T06:33:21;12.82;;;8.10;;
43990;SDS011;29654;50.784;20.604;2023-12-28T06:38:23;11.68;;;7.78;;
43990;SDS011;29654;50.784;20.604;2023-12-28T06:43:28;12.70;;;8.50;;
43990;SDS011;29654;50.784;20.604;2023-12-28T06:48:30;10.55;;;7.45;;
43990;SDS011;29654;50.784;20.604;2023-12-28T06:53:33;17.13;;;10.20;;
43990;SDS011;29654;50.784;20.604;2023-12-28T06:58:37;17.90;;;11.30;;
43990;SDS011;29654;50.784;20.604;2023-12-28T07:03:40;19.25;;;12.52;;
43990;SDS011;29654;50.784;20.604;2023-12-28T07:08:42;12.50;;;9.27;;
43990;SDS011;29654;50.784;20.604;2023-12-28T07:13:46;24.05;;;14.82;;
43990;SDS011;29654;50.784;20.604;2023-12-28T07:18:49;20.75;;;14.18;;
43990;SDS011;29654;50.784;20.604;2023-12-28T07:23:52;19.25;;;14.15;;
43990;SDS011;29654;50.784;20.604;2023-12-28T07:28:56;18.83;;;13.65;;
43990;SDS011;29654;50.784;20.604;2023-12-28T07:33:59;17.05;;;12.48;;
43990;SDS011;29654;50.784;20.604;2023-12-28T07:39:02;18.08;;;11.32;;
43990;SDS011;29654;50.784;20.604;2023-12-28T07:44:06;15.68;;;10.55;;
43990;SDS011;29654;50.784;20.604;2023-12-28T07:49:09;12.23;;;8.45;;
43990;SDS011;29654;50.784;20.604;2023-12-28T07:54:11;17.25;;;9.85;;
43990;SDS011;29654;50.784;20.604;2023-12-28T07:59:15;13.95;;;8.82;;
43990;SDS011;29654;50.784;20.604;2023-12-28T08:04:18;11.07;;;7.47;;
43990;SDS011;29654;50.784;20.604;2023-12-28T08:09:21;11.50;;;7.88;;
43990;SDS011;29654;50.784;20.604;2023-12-28T08:14:25;10.50;;;7.35;;
43990;SDS011;29654;50.784;20.604;2023-12-28T08:19:28;11.68;;;8.32;;
43990;SDS011;29654;50.784;20.604;2023-12-28T08:24:31;13.65;;;9.90;;
43990;SDS011;29654;50.784;20.604;2023-12-28T08:29:35;17.08;;;10.95;;
43990;SDS011;29654;50.784;20.604;2023-12-28T08:34:38;18.58;;;11.80;;
43990;SDS011;29654;50.784;20.604;2023-12-28T08:39:41;18.83;;;11.88;;
43990;SDS011;29654;50.784;20.604;2023-12-28T08:44:46;17.98;;;11.88;;
43990;SDS011;29654;50.784;20.604;2023-12-28T08:49:49;18.00;;;11.60;;
43990;SDS011;29654;50.784;20.604;2023-12-28T08:54:53;14.00;;;9.27;;
43990;SDS011;29654;50.784;20.604;2023-12-28T08:59:58;13.73;;;9.15;;
43990;SDS011;29654;50.784;20.604;2023-12-28T09:05:04;17.08;;;10.65;;
43990;SDS011;29654;50.784;20.604;2023-12-28T09:10:07;13.00;;;9.75;;
43990;SDS011;29654;50.784;20.604;2023-12-28T09:15:13;11.85;;;9.30;;
43990;SDS011;29654;50.784;20.604;2023-12-28T09:20:15;17.20;;;10.43;;
43990;SDS011;29654;50.784;20.604;2023-12-28T09:25:18;11.98;;;9.05;;
43990;SDS011;29654;50.784;20.604;2023-12-28T09:30:22;11.95;;;8.30;;
43990;SDS011;29654;50.784;20.604;2023-12-28T09:35:25;11.13;;;7.68;;
43990;SDS011;29654;50.784;20.604;2023-12-28T09:40:28;11.23;;;8.05;;
43990;SDS011;29654;50.784;20.604;2023-12-28T09:45:32;11.02;;;7.85;;
43990;SDS011;29654;50.784;20.604;2023-12-28T09:50:35;10.50;;;8.40;;
43990;SDS011;29654;50.784;20.604;2023-12-28T09:55:38;13.98;;;9.30;;
43990;SDS011;29654;50.784;20.604;2023-12-28T10:00:42;11.88;;;7.72;;
43990;SDS011;29654;50.784;20.604;2023-12-28T10:05:46;12.73;;;8.60;;
43990;SDS011;29654;50.784;20.604;2023-12-28T10:10:49;10.68;;;7.78;;
43990;SDS011;29654;50.784;20.604;2023-12-28T10:15:57;10.98;;;8.45;;
43990;SDS011;29654;50.784;20.604;2023-12-28T10:21:02;11.25;;;8.60;;
43990;SDS011;29654;50.784;20.604;2023-12-28T10:26:07;11.05;;;7.90;;
43990;SDS011;29654;50.784;20.604;2023-12-28T10:31:12;12.90;;;8.50;;
43990;SDS011;29654;50.784;20.604;2023-12-28T10:36:16;9.70;;;8.68;;
43990;SDS011;29654;50.784;20.604;2023-12-28T10:41:22;9.60;;;7.53;;
43990;SDS011;29654;50.784;20.604;2023-12-28T10:46:27;11.18;;;8.50;;
43990;SDS011;29654;50.784;20.604;2023-12-28T10:51:35;8.48;;;7.32;;
43990;SDS011;29654;50.784;20.604;2023-12-28T10:56:44;11.18;;;8.38;;
43990;SDS011;29654;50.784;20.604;2023-12-28T11:01:51;9.80;;;7.65;;
43990;SDS011;29654;50.784;20.604;2023-12-28T11:06:57;9.48;;;7.15;;
43990;SDS011;29654;50.784;20.604;2023-12-28T11:12:02;9.40;;;7.53;;
43990;SDS011;29654;50.784;20.604;2023-12-28T11:17:08;11.43;;;7.85;;
43990;SDS011;29654;50.784;20.604;2023-12-28T11:22:14;9.85;;;7.35;;
43990;SDS011;29654;50.784;20.604;2023-12-28T11:27:17;8.50;;;6.93;;
43990;SDS011;29654;50.784;20.604;2023-12-28T11:32:21;8.07;;;6.35;;
43990;SDS011;29654;50.784;20.604;2023-12-28T11:37:24;8.52;;;6.85;;
43990;SDS011;29654;50.784;20.604;2023-12-28T11:42:29;7.53;;;6.70;;
43990;SDS011;29654;50.784;20.604;2023-12-28T11:47:33;8.68;;;6.53;;
43990;SDS011;29654;50.784;20.604;2023-12-28T11:52:36;8.13;;;6.95;;
43990;SDS011;29654;50.784;20.604;2023-12-28T11:57:38;10.20;;;7.07;;
43990;SDS011;29654;50.784;20.604;2023-12-28T12:02:44;8.73;;;6.55;;
43990;SDS011;29654;50.784;20.604;2023-12-28T12:07:48;7.20;;;5.63;;
43990;SDS011;29654;50.784;20.604;2023-12-28T12:12:51;6.60;;;5.63;;
43990;SDS011;29654;50.784;20.604;2023-12-28T12:17:56;7.20;;;5.38;;
43990;SDS011;29654;50.784;20.604;2023-12-28T12:22:59;7.93;;;6.00;;
43990;SDS011;29654;50.784;20.604;2023-12-28T12:28:02;9.55;;;5.78;;
43990;SDS011;29654;50.784;20.604;2023-12-28T12:33:07;6.35;;;5.53;;
43990;SDS011;29654;50.784;20.604;2023-12-28T12:38:10;7.40;;;5.68;;
43990;SDS011;29654;50.784;20.604;2023-12-28T12:43:13;6.35;;;5.10;;
43990;SDS011;29654;50.784;20.604;2023-12-28T12:48:17;5.88;;;4.90;;
43990;SDS011;29654;50.784;20.604;2023-12-28T12:53:21;6.63;;;5.25;;
43990;SDS011;29654;50.784;20.604;2023-12-28T12:58:24;6.07;;;5.43;;
43990;SDS011;29654;50.784;20.604;2023-12-28T13:03:29;7.18;;;4.97;;
43990;SDS011;29654;50.784;20.604;2023-12-28T13:08:31;6.85;;;4.97;;
43990;SDS011;29654;50.784;20.604;2023-12-28T13:13:34;5.30;;;4.35;;
43990;SDS011;29654;50.784;20.604;2023-12-28T13:18:39;5.88;;;4.85;;
43990;SDS011;29654;50.784;20.604;2023-12-28T13:23:41;6.85;;;4.97;;
43990;SDS011;29654;50.784;20.604;2023-12-28T13:28:44;5.85;;;4.38;;
43990;SDS011;29654;50.784;20.604;2023-12-28T13:33:48;5.63;;;4.35;;
43990;SDS011;29654;50.784;20.604;2023-12-28T13:38:51;5.68;;;5.07;;
43990;SDS011;29654;50.784;20.604;2023-12-28T13:43:54;7.00;;;5.43;;
43990;SDS011;29654;50.784;20.604;2023-12-28T13:49:03;5.50;;;4.95;;
43990;SDS011;29654;50.784;20.604;2023-12-28T13:54:07;7.20;;;4.57;;
43990;SDS011;29654;50.784;20.604;2023-12-28T13:59:10;5.68;;;5.13;;
43990;SDS011;29654;50.784;20.604;2023-12-28T14:04:14;7.07;;;5.80;;
43990;SDS011;29654;50.784;20.604;2023-12-28T14:09:17;5.80;;;4.82;;
43990;SDS011;29654;50.784;20.604;2023-12-28T14:14:20;6.82;;;5.43;;
43990;SDS011;29654;50.784;20.604;2023-12-28T14:19:24;6.30;;;5.70;;
43990;SDS011;29654;50.784;20.604;2023-12-28T14:24:27;6.22;;;5.03;;
43990;SDS011;29654;50.784;20.604;2023-12-28T14:29:31;7.18;;;5.47;;
43990;SDS011;29654;50.784;20.604;2023-12-28T14:34:36;7.63;;;5.65;;
43990;SDS011;29654;50.784;20.604;2023-12-28T14:39:39;8.35;;;5.60;;
43990;SDS011;29654;50.784;20.604;2023-12-28T14:44:42;9.90;;;5.85;;
43990;SDS011;29654;50.784;20.604;2023-12-28T14:49:46;9.40;;;6.53;;
43990;SDS011;29654;50.784;20.604;2023-12-28T14:54:49;7.95;;;6.53;;
43990;SDS011;29654;50.784;20.604;2023-12-28T14:59:54;8.85;;;6.05;;
43990;SDS011;29654;50.784;20.604;2023-12-28T15:04:58;9.95;;;6.40;;
43990;SDS011;29654;50.784;20.604;2023-12-28T15:10:01;10.18;;;6.88;;
43990;SDS011;29654;50.784;20.604;2023-12-28T15:15:05;9.30;;;7.40;;
43990;SDS011;29654;50.784;20.604;2023-12-28T15:20:12;10.98;;;7.85;;
43990;SDS011;29654;50.784;20.604;2023-12-28T15:25:15;9.77;;;6.53;;
43990;SDS011;29654;50.784;20.604;2023-12-28T15:30:18;9.57;;;6.93;;
43990;SDS011;29654;50.784;20.604;2023-12-28T15:35:23;6.63;;;5.75;;
43990;SDS011;29654;50.784;20.604;2023-12-28T15:40:25;7.60;;;6.22;;
43990;SDS011;29654;50.784;20.604;2023-12-28T15:45:28;10.25;;;7.05;;
43990;SDS011;29654;50.784;20.604;2023-12-28T15:50:33;9.98;;;6.70;;
43990;SDS011;29654;50.784;20.604;2023-12-28T15:55:36;7.43;;;5.47;;
43990;SDS011;29654;50.784;20.604;2023-12-28T16:00:39;7.85;;;7.03;;
43990;SDS011;29654;50.784;20.604;2023-12-28T16:05:45;9.43;;;6.82;;
43990;SDS011;29654;50.784;20.604;2023-12-28T16:10:48;7.50;;;5.85;;
43990;SDS011;29654;50.784;20.604;2023-12-28T16:15:50;11.18;;;7.32;;
43990;SDS011;29654;50.784;20.604;2023-12-28T16:20:56;8.55;;;6.82;;
43990;SDS011;29654;50.784;20.604;2023-12-28T16:26:00;11.40;;;7.97;;
43990;SDS011;29654;50.784;20.604;2023-12-28T16:31:03;12.32;;;8.38;;
43990;SDS011;29654;50.784;20.604;2023-12-28T16:36:07;8.82;;;7.60;;
43990;SDS011;29654;50.784;20.604;2023-12-28T16:41:10;12.02;;;8.82;;
43990;SDS011;29654;50.784;20.604;2023-12-28T16:46:13;10.93;;;7.97;;
43990;SDS011;29654;50.784;20.604;2023-12-28T16:51:17;10.43;;;8.88;;
43990;SDS011;29654;50.784;20.604;2023-12-28T16:56:19;11.93;;;8.77;;
43990;SDS011;29654;50.784;20.604;2023-12-28T17:01:22;11.88;;;8.75;;
43990;SDS011;29654;50.784;20.604;2023-12-28T17:06:26;10.93;;;9.13;;
43990;SDS011;29654;50.784;20.604;2023-12-28T17:11:31;11.07;;;8.45;;
43990;SDS011;29654;50.784;20.604;2023-12-28T17:16:35;13.15;;;9.40;;
43990;SDS011;29654;50.784;20.604;2023-12-28T17:21:40;10.88;;;8.65;;
43990;SDS011;29654;50.784;20.604;2023-12-28T17:26:46;16.77;;;11.32;;
43990;SDS011;29654;50.784;20.604;2023-12-28T17:31:55;14.57;;;11.10;;
43990;SDS011;29654;50.784;20.604;2023-12-28T17:37:03;11.30;;;9.02;;
43990;SDS011;29654;50.784;20.604;2023-12-28T17:42:07;14.45;;;10.75;;
43990;SDS011;29654;50.784;20.604;2023-12-28T17:47:13;20.20;;;12.35;;
43990;SDS011;29654;50.784;20.604;2023-12-28T17:52:23;17.25;;;12.35;;
43990;SDS011;29654;50.784;20.604;2023-12-28T17:57:28;16.23;;;12.55;;
43990;SDS011;29654;50.784;20.604;2023-12-28T18:02:33;18.45;;;13.00;;
43990;SDS011;29654;50.784;20.604;2023-12-28T18:07:37;18.52;;;12.60;;
43990;SDS011;29654;50.784;20.604;2023-12-28T18:12:40;17.23;;;12.15;;
43990;SDS011;29654;50.784;20.604;2023-12-28T18:17:43;18.38;;;12.93;;
43990;SDS011;29654;50.784;20.604;2023-12-28T18:22:47;15.15;;;10.05;;
43990;SDS011;29654;50.784;20.604;2023-12-28T18:27:49;15.98;;;12.70;;
43990;SDS011;29654;50.784;20.604;2023-12-28T18:32:53;17.50;;;14.13;;
43990;SDS011;29654;50.784;20.604;2023-12-28T18:37:58;17.90;;;12.13;;
43990;SDS011;29654;50.784;20.604;2023-12-28T18:43:01;18.15;;;13.88;;
43990;SDS011;29654;50.784;20.604;2023-12-28T18:48:04;17.63;;;12.75;;
43990;SDS011;29654;50.784;20.604;2023-12-28T18:53:14;16.73;;;13.07;;
43990;SDS011;29654;50.784;20.604;2023-12-28T18:58:19;17.05;;;12.82;;
43990;SDS011;29654;50.784;20.604;2023-12-28T19:03:22;16.38;;;11.35;;
43990;SDS011;29654;50.784;20.604;2023-12-28T19:08:29;17.60;;;13.20;;
43990;SDS011;29654;50.784;20.604;2023-12-28T19:13:32;17.58;;;13.00;;
43990;SDS011;29654;50.784;20.604;2023-12-28T19:18:35;17.92;;;12.77;;
43990;SDS011;29654;50.784;20.604;2023-12-28T19:23:39;21.48;;;13.55;;
43990;SDS011;29654;50.784;20.604;2023-12-28T19:28:43;17.60;;;12.98;;
43990;SDS011;29654;50.784;20.604;2023-12-28T19:33:46;19.70;;;13.98;;
43990;SDS011;29654;50.784;20.604;2023-12-28T19:38:50;17.90;;;12.10;;
43990;SDS011;29654;50.784;20.604;2023-12-28T19:43:53;18.25;;;12.32;;
43990;SDS011;29654;50.784;20.604;2023-12-28T19:48:56;14.40;;;11.68;;
43990;SDS011;29654;50.784;20.604;2023-12-28T19:54:02;18.00;;;12.32;;
43990;SDS011;29654;50.784;20.604;2023-12-28T19:59:06;20.55;;;13.23;;
43990;SDS011;29654;50.784;20.604;2023-12-28T20:04:08;16.67;;;11.77;;
43990;SDS011;29654;50.784;20.604;2023-12-28T20:09:15;15.60;;;12.27;;
43990;SDS011;29654;50.784;20.604;2023-12-28T20:14:18;16.35;;;9.75;;
43990;SDS011;29654;50.784;20.604;2023-12-28T20:19:20;15.80;;;11.60;;
43990;SDS011;29654;50.784;20.604;2023-12-28T20:24:25;16.65;;;12.30;;
43990;SDS011;29654;50.784;20.604;2023-12-28T20:29:29;15.73;;;12.23;;
43990;SDS011;29654;50.784;20.604;2023-12-28T20:34:32;15.82;;;11.85;;
43990;SDS011;29654;50.784;20.604;2023-12-28T20:39:36;19.92;;;13.23;;
43990;SDS011;29654;50.784;20.604;2023-12-28T20:44:38;15.75;;;11.77;;
43990;SDS011;29654;50.784;20.604;2023-12-28T20:49:42;16.27;;;11.93;;
43990;SDS011;29654;50.784;20.604;2023-12-28T20:54:46;16.98;;;12.48;;
43990;SDS011;29654;50.784;20.604;2023-12-28T20:59:49;66.28;;;30.88;;
43990;SDS011;29654;50.784;20.604;2023-12-28T21:04:53;86.47;;;35.42;;
43990;SDS011;29654;50.784;20.604;2023-12-28T21:09:57;42.35;;;22.85;;
43990;SDS011;29654;50.784;20.604;2023-12-28T21:15:00;40.25;;;20.25;;
43990;SDS011;29654;50.784;20.604;2023-12-28T21:20:03;41.33;;;21.10;;
43990;SDS011;29654;50.784;20.604;2023-12-28T21:25:11;27.50;;;16.02;;
43990;SDS011;29654;50.784;20.604;2023-12-28T21:30:14;20.92;;;13.85;;
43990;SDS011;29654;50.784;20.604;2023-12-28T21:35:17;75.20;;;30.35;;
43990;SDS011;29654;50.784;20.604;2023-12-28T21:40:22;52.15;;;22.95;;
43990;SDS011;29654;50.784;20.604;2023-12-28T21:45:25;60.42;;;29.77;;
43990;SDS011;29654;50.784;20.604;2023-12-28T21:50:28;71.72;;;33.83;;
43990;SDS011;29654;50.784;20.604;2023-12-28T21:55:32;65.18;;;31.33;;
43990;SDS011;29654;50.784;20.604;2023-12-28T22:00:35;55.55;;;25.70;;
43990;SDS011;29654;50.784;20.604;2023-12-28T22:05:39;65.18;;;30.90;;
43990;SDS011;29654;50.784;20.604;2023-12-28T22:10:44;80.68;;;38.20;;
43990;SDS011;29654;50.784;20.604;2023-12-28T22:15:54;96.85;;;40.25;;
43990;SDS011;29654;50.784;20.604;2023-12-28T22:21:00;97.40;;;40.83;;
43990;SDS011;29654;50.784;20.604;2023-12-28T22:26:05;73.13;;;34.72;;
43990;SDS011;29654;50.784;20.604;2023-12-28T22:31:09;53.20;;;24.35;;
43990;SDS011;29654;50.784;20.604;2023-12-28T22:36:13;32.40;;;17.85;;
43990;SDS011;29654;50.784;20.604;2023-12-28T22:41:19;20.85;;;13.10;;
43990;SDS011;29654;50.784;20.604;2023-12-28T22:46:23;15.18;;;10.15;;
43990;SDS011;29654;50.784;20.604;2023-12-28T22:51:25;15.32;;;10.90;;
43990;SDS011;29654;50.784;20.604;2023-12-28T22:56:30;17.42;;;11.95;;
43990;SDS011;29654;50.784;20.604;2023-12-28T23:01:32;10.73;;;8.30;;
43990;SDS011;29654;50.784;20.604;2023-12-28T23:06:35;15.15;;;11.18;;
43990;SDS011;29654;50.784;20.604;2023-12-28T23:11:39;14.70;;;10.15;;
43990;SDS011;29654;50.784;20.604;2023-12-28T23:16:43;16.83;;;11.27;;
43990;SDS011;29654;50.784;20.604;2023-12-28T23:21:45;15.02;;;10.93;;
43990;SDS011;29654;50.784;20.604;2023-12-28T23:26:52;14.15;;;10.15;;
43990;SDS011;29654;50.784;20.604;2023-12-28T23:31:55;13.65;;;8.45;;
43990;SDS011;29654;50.784;20.604;2023-12-28T23:36:58;14.18;;;10.15;;
43990;SDS011;29654;50.784;20.604;2023-12-28T23:42:03;15.85;;;10.82;;
43990;SDS011;29654;50.784;20.604;2023-12-28T23:47:07;12.82;;;9.57;;
43990;SDS011;29654;50.784;20.604;2023-12-28T23:52:10;64.43;;;28.65;;
43990;SDS011;29654;50.784;20.604;2023-12-28T23:57:15;52.47;;;25.92;;
